Aérodrome :
LOGIN :

S'inscrire | Disclaimer

   EN    FR    IT 

 










Légende :    VFR   VFR Marginal   IFR   IFR Intensif   IFR Très Intensif
Visi : 
Plafond : 
>= 8 km
>= 3000ft
5 à 8 km
1000 à 3000 ft
1500m à 5 km
500 à 1000 ft
800 à 1500m
200 à 500 ft
< 800m
< 200 ft
Symboles :   Orages  Brouillard  Fortes neiges  Fortes précipitations  Vent > 20 kt
SIGMETs :   Divers  Orages  Givrage  Turbulence  Onde Orograph.  Cendres Volcan.






- Altitude de l'aérodrome : 257 ft
- Code IATA : MAN


EGCC - Manchester

DERNIER METAR :
  • 151750Z AUTO VRB02KT 9999 BKN020 11/09 Q1002 NOSIG

METARs EXPIRÉS :
  • 151720Z AUTO VRB02KT 9999 FEW026 10/08 Q1002
  • 151650Z AUTO VRB03KT 9999 BKN018 11/09 Q1002 NOSIG
  • 151620Z AUTO VRB03KT 9999 OVC019 12/09 Q1002 NOSIG
  • 151550Z AUTO 18004KT 120V260 9999 BKN021 OVC025 12/09 Q1002
  • 151520Z AUTO VRB03KT 9999 OVC020 12/09 Q1002

TAF TAF EGCC
Valide du 15 à 18h jusqu'au 17 à 00h UTC


151654Z 1518/1624 18004KT 9999 SCT020
BECMG 1523/1602 17014KT
TEMPO 1602/1610 6000 RA BKN010
PROB30
TEMPO 1603/1606 4000 +RA BKN005
BECMG 1607/1610 25010KT SCT025
BECMG 1619/1622 19005KT
ATIS : +44 161 499 2324



MET'MAP, la Météo Aéronautique d'un coup d'oeil ! - Copyright ORBIFLY Décembre 2007 - Disclaimer

ORBIFLY MET'MAP TEAM :

Programmation & Développement : Alexandra Zaïnal
Conception & Développement : Baudouin d'Aumeries
Co-Programmation & Développement : Marc-Olivier Méhu
Soutien technique & logistique : Manuel Goepfert

Contact : metmap@orbifly.com




SOURCES & CREDITS :

   NOAA